createdAt,value
2018-07-26T00:00:11.270Z,22.00
2018-07-26T00:02:39.656Z,21.90
2018-07-26T00:05:07.958Z,21.80
2018-07-26T00:07:36.550Z,21.80
2018-07-26T00:12:33.208Z,21.70
2018-07-26T00:15:01.527Z,21.70
2018-07-26T00:17:29.794Z,21.60
2018-07-26T00:19:58.066Z,21.60
2018-07-26T00:22:26.376Z,21.50
2018-07-26T00:24:54.668Z,21.50
2018-07-26T00:27:22.937Z,21.50
2018-07-26T00:29:51.212Z,21.50
2018-07-26T00:32:19.475Z,21.50
2018-07-26T00:37:15.772Z,21.50
2018-07-26T00:39:44.032Z,21.40
2018-07-26T00:42:12.312Z,21.40
2018-07-26T00:44:40.566Z,21.40
2018-07-26T00:47:08.852Z,21.40
2018-07-26T00:49:37.152Z,21.30
2018-07-26T00:52:06.441Z,21.30
2018-07-26T00:54:34.838Z,21.20
2018-07-26T00:57:03.094Z,21.20
2018-07-26T00:59:31.360Z,21.20
2018-07-26T01:04:27.620Z,21.10
2018-07-26T01:06:55.940Z,21.10
2018-07-26T01:11:52.208Z,21.10
2018-07-26T01:14:20.501Z,21.10
2018-07-26T01:16:48.764Z,21.00
2018-07-26T01:19:17.032Z,21.00
2018-07-26T01:21:45.290Z,20.90
2018-07-26T01:24:13.572Z,21.00
2018-07-26T01:26:41.854Z,20.90
2018-07-26T01:29:10.130Z,20.90
2018-07-26T01:31:38.394Z,20.80
2018-07-26T01:34:06.660Z,20.90
2018-07-26T01:36:35.014Z,20.90
2018-07-26T01:39:03.976Z,20.90
2018-07-26T01:41:32.294Z,20.80
2018-07-26T01:44:11.772Z,20.80
2018-07-26T01:46:40.055Z,20.80
2018-07-26T01:49:08.312Z,20.80
2018-07-26T01:51:36.596Z,20.80
2018-07-26T01:54:04.875Z,20.70
2018-07-26T01:59:01.153Z,20.60
2018-07-26T02:01:29.433Z,20.60
2018-07-26T02:03:57.703Z,20.60
2018-07-26T02:06:25.982Z,20.60
2018-07-26T02:08:54.297Z,20.50
2018-07-26T02:11:22.569Z,20.50
2018-07-26T02:13:50.859Z,20.50
2018-07-26T02:16:19.123Z,20.50
2018-07-26T02:18:47.435Z,20.50
2018-07-26T02:23:43.709Z,20.40
2018-07-26T02:26:11.967Z,20.40
2018-07-26T02:28:40.277Z,20.40
2018-07-26T02:31:08.624Z,20.40
2018-07-26T02:36:04.829Z,20.40
2018-07-26T02:38:33.103Z,20.30
2018-07-26T02:41:01.387Z,20.30
2018-07-26T02:43:29.719Z,20.30
2018-07-26T02:45:58.005Z,20.30
2018-07-26T02:48:26.263Z,20.30
2018-07-26T02:50:54.545Z,20.30
2018-07-26T02:53:22.803Z,20.30
2018-07-26T02:55:51.091Z,20.30
2018-07-26T02:58:19.391Z,20.20
2018-07-26T03:00:47.677Z,20.20
2018-07-26T03:03:15.926Z,20.20
2018-07-26T03:05:44.217Z,20.20
2018-07-26T03:08:12.490Z,20.20
2018-07-26T03:10:40.769Z,20.20
2018-07-26T03:13:09.067Z,20.10
2018-07-26T03:15:37.379Z,20.10
2018-07-26T03:18:05.721Z,20.10
2018-07-26T03:20:34.001Z,20.00
2018-07-26T03:23:02.287Z,20.00
2018-07-26T03:25:30.585Z,19.90
2018-07-26T03:27:58.869Z,19.90
2018-07-26T03:30:27.137Z,19.90
2018-07-26T03:32:55.418Z,19.90
2018-07-26T03:35:23.701Z,19.90
2018-07-26T03:37:52.009Z,19.90
2018-07-26T03:40:20.282Z,19.90
2018-07-26T03:42:48.591Z,19.90
2018-07-26T03:45:16.879Z,19.90
2018-07-26T03:47:45.167Z,19.80
2018-07-26T03:50:13.521Z,19.80
2018-07-26T03:52:41.845Z,19.70
2018-07-26T03:55:10.102Z,19.70
2018-07-26T03:57:38.401Z,19.70
2018-07-26T04:00:06.835Z,19.70
2018-07-26T04:02:35.099Z,19.60
2018-07-26T04:05:03.382Z,19.70
2018-07-26T04:07:31.647Z,19.70
2018-07-26T04:09:59.916Z,19.70
2018-07-26T04:12:28.196Z,19.70
2018-07-26T04:14:56.481Z,19.80
2018-07-26T04:17:24.782Z,19.80
2018-07-26T04:22:21.064Z,19.90
2018-07-26T04:24:49.327Z,19.90
2018-07-26T04:27:17.603Z,20.00
2018-07-26T04:29:45.880Z,20.00
2018-07-26T04:32:14.214Z,20.00
2018-07-26T04:34:42.404Z,20.00
2018-07-26T04:37:10.674Z,20.00
2018-07-26T04:39:38.938Z,20.00
2018-07-26T04:42:07.312Z,20.00
2018-07-26T04:44:35.578Z,20.00
2018-07-26T04:47:03.844Z,20.00
2018-07-26T04:49:32.128Z,20.00
2018-07-26T04:52:00.410Z,20.00
2018-07-26T04:54:28.726Z,20.10
2018-07-26T04:56:56.976Z,20.10
2018-07-26T04:59:25.264Z,20.10
2018-07-26T05:01:53.542Z,20.20
2018-07-26T05:04:21.828Z,20.20
2018-07-26T05:06:50.119Z,20.20
2018-07-26T05:11:46.426Z,20.30
2018-07-26T05:14:14.709Z,20.20
2018-07-26T05:16:43.014Z,20.30
2018-07-26T05:19:11.370Z,20.30
2018-07-26T05:21:39.617Z,20.40
2018-07-26T05:24:09.912Z,20.50
2018-07-26T05:26:38.888Z,20.50
2018-07-26T05:29:07.264Z,20.60
2018-07-26T05:31:35.601Z,20.60
2018-07-26T05:36:31.944Z,20.70
2018-07-26T05:39:00.233Z,20.70
2018-07-26T05:41:28.794Z,20.80
2018-07-26T05:46:25.126Z,21.10
2018-07-26T05:48:53.460Z,21.20
2018-07-26T05:51:21.778Z,21.20
2018-07-26T05:53:50.063Z,21.30
2018-07-26T05:56:18.363Z,21.40
2018-07-26T05:58:46.770Z,21.40
2018-07-26T06:03:43.140Z,21.60
2018-07-26T06:06:11.448Z,21.60
2018-07-26T06:08:39.750Z,21.70
2018-07-26T06:11:08.073Z,21.80
2018-07-26T06:16:04.423Z,21.90
2018-07-26T06:18:32.688Z,22.00
2018-07-26T06:21:01.081Z,22.10
2018-07-26T06:23:29.432Z,22.20
2018-07-26T06:28:25.932Z,22.50
2018-07-26T06:30:54.321Z,22.60
2018-07-26T06:33:22.710Z,22.70
2018-07-26T06:35:50.958Z,22.80
2018-07-26T06:38:19.266Z,22.80
2018-07-26T06:40:47.602Z,22.90
2018-07-26T06:43:15.900Z,23.00
2018-07-26T06:45:44.234Z,23.10
2018-07-26T06:48:12.519Z,23.20
2018-07-26T06:50:40.832Z,23.30
2018-07-26T06:53:09.199Z,23.50
2018-07-26T06:55:37.491Z,23.70
2018-07-26T06:58:05.809Z,24.00
2018-07-26T07:00:34.169Z,24.20
2018-07-26T07:03:02.462Z,24.40
2018-07-26T07:07:58.747Z,24.60
2018-07-26T07:10:27.082Z,24.80
2018-07-26T07:12:55.365Z,24.90
2018-07-26T07:15:23.697Z,25.10
2018-07-26T07:17:52.023Z,25.10
2018-07-26T07:20:20.369Z,25.20
2018-07-26T07:22:48.707Z,25.30
2018-07-26T07:25:17.289Z,25.50
2018-07-26T07:27:45.671Z,25.60
2018-07-26T07:30:13.899Z,25.60
2018-07-26T07:32:42.631Z,25.70
2018-07-26T07:35:11.128Z,25.70
2018-07-26T07:37:39.919Z,25.80
2018-07-26T07:40:09.119Z,25.80
2018-07-26T07:42:37.609Z,25.90
2018-07-26T07:45:06.875Z,25.90
2018-07-26T07:47:35.233Z,26.00
2018-07-26T07:50:03.516Z,26.10
2018-07-26T07:52:31.794Z,26.20
2018-07-26T07:55:00.074Z,26.30
2018-07-26T07:57:28.359Z,26.40
2018-07-26T08:02:24.693Z,26.60
2018-07-26T08:04:53.181Z,26.70
2018-07-26T08:07:21.647Z,26.80
2018-07-26T08:09:49.961Z,26.90
2018-07-26T08:12:18.285Z,27.00
2018-07-26T08:14:46.553Z,27.10
2018-07-26T08:17:14.827Z,27.20
2018-07-26T08:19:43.101Z,27.30
2018-07-26T08:24:39.403Z,27.40
2018-07-26T08:27:07.694Z,27.60
2018-07-26T08:29:35.975Z,27.70
2018-07-26T08:32:04.305Z,27.70
2018-07-26T08:37:00.609Z,27.90
2018-07-26T08:39:28.863Z,28.00
2018-07-26T08:41:57.174Z,28.10
2018-07-26T08:44:25.464Z,28.20
2018-07-26T08:46:53.747Z,28.30
2018-07-26T08:49:22.053Z,28.50
2018-07-26T08:51:50.346Z,28.50
2018-07-26T08:54:18.685Z,28.60
2018-07-26T08:56:46.951Z,28.60
2018-07-26T08:59:15.224Z,28.70
2018-07-26T09:01:43.525Z,28.80
2018-07-26T09:04:11.821Z,29.00
2018-07-26T09:06:40.120Z,29.10
2018-07-26T09:09:10.457Z,29.20
2018-07-26T09:11:38.809Z,29.30
2018-07-26T09:16:35.263Z,29.50
2018-07-26T09:19:03.573Z,29.50
2018-07-26T09:21:31.857Z,29.50
2018-07-26T09:24:00.141Z,29.60
2018-07-26T09:26:28.424Z,29.70
2018-07-26T09:28:56.735Z,29.70
2018-07-26T09:31:24.979Z,29.80
2018-07-26T09:38:49.308Z,30.00
2018-07-26T09:41:17.604Z,30.00
2018-07-26T09:43:45.881Z,30.10
2018-07-26T09:46:14.567Z,30.10
2018-07-26T09:48:42.886Z,30.20
2018-07-26T09:51:11.159Z,30.40
2018-07-26T09:53:39.459Z,30.40
2018-07-26T09:56:07.776Z,30.50
2018-07-26T09:58:36.036Z,30.70
2018-07-26T10:01:09.637Z,30.70
2018-07-26T10:06:06.062Z,30.70
2018-07-26T10:08:34.392Z,30.80
2018-07-26T10:13:30.726Z,30.90
2018-07-26T10:15:59.043Z,30.90
2018-07-26T10:18:27.296Z,31.10
2018-07-26T10:20:55.630Z,31.10
2018-07-26T10:23:23.904Z,31.20
2018-07-26T10:25:52.180Z,31.20
2018-07-26T10:28:20.485Z,31.20
2018-07-26T10:30:48.763Z,31.30
2018-07-26T10:33:17.046Z,31.30
2018-07-26T10:35:45.316Z,31.40
2018-07-26T10:38:13.592Z,31.40
2018-07-26T10:40:41.859Z,31.40
2018-07-26T10:43:10.160Z,31.50
2018-07-26T10:45:38.448Z,31.50
2018-07-26T10:48:07.071Z,31.50
2018-07-26T10:50:35.330Z,31.50
2018-07-26T10:53:03.644Z,31.50
2018-07-26T10:55:31.960Z,31.50
2018-07-26T10:58:00.231Z,31.60
2018-07-26T11:00:28.560Z,31.60
2018-07-26T11:02:56.860Z,31.70
2018-07-26T11:07:53.186Z,31.80
2018-07-26T11:10:21.444Z,31.80
2018-07-26T11:12:49.734Z,31.90
2018-07-26T11:15:30.346Z,31.90
2018-07-26T11:17:59.046Z,32.00
2018-07-26T11:20:27.420Z,32.00
2018-07-26T11:22:55.716Z,32.10
2018-07-26T11:25:24.020Z,32.20
2018-07-26T11:32:48.357Z,32.30
2018-07-26T11:37:44.701Z,32.20
2018-07-26T11:40:13.012Z,32.20
2018-07-26T11:42:41.345Z,32.20
2018-07-26T11:45:10.253Z,32.30
2018-07-26T11:47:39.161Z,32.40
2018-07-26T11:50:08.497Z,32.50
2018-07-26T11:52:36.776Z,32.50
2018-07-26T11:55:05.329Z,32.50
2018-07-26T11:57:33.631Z,32.50
2018-07-26T12:00:02.419Z,32.50
2018-07-26T12:02:30.735Z,32.60
2018-07-26T12:07:27.048Z,32.70
2018-07-26T12:09:55.330Z,32.70
2018-07-26T12:12:23.612Z,32.70
2018-07-26T12:14:51.872Z,32.80
2018-07-26T12:17:20.157Z,32.80
2018-07-26T12:19:48.476Z,32.80
2018-07-26T12:22:16.756Z,32.90
2018-07-26T12:24:45.049Z,32.80
2018-07-26T12:27:13.399Z,32.80
2018-07-26T12:32:09.631Z,32.90
2018-07-26T12:34:37.904Z,32.90
2018-07-26T12:37:06.220Z,32.90
2018-07-26T12:39:34.568Z,32.80
2018-07-26T12:42:02.871Z,32.80
2018-07-26T12:44:31.117Z,32.70
2018-07-26T12:46:59.379Z,32.70
2018-07-26T12:51:55.676Z,32.60
2018-07-26T12:54:23.953Z,32.60
2018-07-26T12:56:52.258Z,32.60
2018-07-26T12:59:20.539Z,32.60
2018-07-26T13:01:48.841Z,32.70
2018-07-26T13:04:17.068Z,32.80
2018-07-26T13:06:45.343Z,32.90
2018-07-26T13:09:13.648Z,33.00
2018-07-26T13:11:41.927Z,33.00
2018-07-26T13:14:10.216Z,33.00
2018-07-26T13:16:38.480Z,33.00
2018-07-26T13:19:06.823Z,32.90
2018-07-26T13:21:35.101Z,32.90
2018-07-26T13:24:03.394Z,33.00
2018-07-26T13:26:31.650Z,33.00
2018-07-26T13:28:59.925Z,32.90
2018-07-26T13:31:28.198Z,32.90
2018-07-26T13:33:56.480Z,32.80
2018-07-26T13:36:24.762Z,32.60
2018-07-26T13:38:53.064Z,32.40
2018-07-26T13:41:21.353Z,32.20
2018-07-26T13:43:49.631Z,32.00
2018-07-26T13:46:17.940Z,32.00
2018-07-26T13:48:46.273Z,32.20
2018-07-26T13:51:14.551Z,32.20
2018-07-26T13:53:42.832Z,32.30
2018-07-26T13:56:11.119Z,32.20
2018-07-26T13:58:39.422Z,32.00
2018-07-26T14:01:07.700Z,31.80
2018-07-26T14:03:35.976Z,31.70
2018-07-26T14:06:04.301Z,31.50
2018-07-26T14:08:32.565Z,31.40
2018-07-26T14:11:00.858Z,31.30
2018-07-26T14:13:29.139Z,31.20
2018-07-26T14:15:57.521Z,31.20
2018-07-26T14:18:25.689Z,31.30
2018-07-26T14:20:53.953Z,31.50
2018-07-26T14:23:27.615Z,31.70
2018-07-26T14:25:55.908Z,31.80
2018-07-26T14:28:24.223Z,32.00
2018-07-26T14:30:52.521Z,32.10
2018-07-26T14:33:20.809Z,32.20
2018-07-26T14:35:49.094Z,32.30
2018-07-26T14:38:17.415Z,32.40
2018-07-26T14:40:45.715Z,32.40
2018-07-26T14:43:14.046Z,32.40
2018-07-26T14:45:42.363Z,32.50
2018-07-26T14:50:38.735Z,32.40
2018-07-26T14:53:07.029Z,32.50
2018-07-26T14:55:35.327Z,32.50
2018-07-26T14:58:03.625Z,32.50
2018-07-26T15:00:31.979Z,32.40
2018-07-26T15:03:00.235Z,32.40
2018-07-26T15:05:28.581Z,32.30
2018-07-26T15:07:56.877Z,32.30
2018-07-26T15:10:25.183Z,32.40
2018-07-26T15:12:53.589Z,32.30
2018-07-26T15:15:21.881Z,32.40
2018-07-26T15:17:50.165Z,32.50
2018-07-26T15:20:18.460Z,32.50
2018-07-26T15:22:46.805Z,32.50
2018-07-26T15:27:47.404Z,32.40
2018-07-26T15:30:15.677Z,32.50
2018-07-26T15:32:44.080Z,32.60
2018-07-26T15:35:12.345Z,32.70
2018-07-26T15:37:40.629Z,32.80
2018-07-26T15:40:08.885Z,32.90
2018-07-26T15:42:37.263Z,33.10
2018-07-26T15:45:06.247Z,33.20
2018-07-26T15:50:02.942Z,33.20
2018-07-26T15:52:31.242Z,33.00
2018-07-26T15:54:59.633Z,32.80
2018-07-26T15:57:27.933Z,32.60
2018-07-26T15:59:56.229Z,32.30
2018-07-26T16:02:24.497Z,32.00
2018-07-26T16:04:52.852Z,31.80
2018-07-26T16:07:21.116Z,31.50
2018-07-26T16:09:49.391Z,31.30
2018-07-26T16:14:45.736Z,31.00
2018-07-26T16:17:14.076Z,30.80
2018-07-26T16:19:42.381Z,30.70
2018-07-26T16:22:10.737Z,30.70
2018-07-26T16:24:38.949Z,30.80
2018-07-26T16:27:07.232Z,30.90
2018-07-26T16:29:35.516Z,31.00
2018-07-26T16:32:03.865Z,31.10
2018-07-26T16:34:32.146Z,31.30
2018-07-26T16:37:00.427Z,31.40
2018-07-26T16:39:28.726Z,31.50
2018-07-26T16:41:57.003Z,31.70
2018-07-26T16:44:25.283Z,31.70
2018-07-26T16:46:53.561Z,31.80
2018-07-26T16:49:21.888Z,31.90
2018-07-26T16:51:50.198Z,31.90
2018-07-26T16:54:18.544Z,32.00
2018-07-26T16:56:46.926Z,31.90
2018-07-26T16:59:15.208Z,32.00
2018-07-26T17:01:43.451Z,32.00
2018-07-26T17:04:11.725Z,32.00
2018-07-26T17:06:40.016Z,32.10
2018-07-26T17:09:09.676Z,32.10
2018-07-26T17:11:38.049Z,32.10
2018-07-26T17:14:06.477Z,32.20
2018-07-26T17:16:34.823Z,32.60
2018-07-26T17:19:03.505Z,33.00
2018-07-26T17:21:31.772Z,33.50
2018-07-26T17:24:00.069Z,34.00
2018-07-26T17:26:28.364Z,34.50
2018-07-26T17:28:56.716Z,34.90
2018-07-26T17:31:25.025Z,35.30
2018-07-26T17:33:53.336Z,35.60
2018-07-26T17:38:49.679Z,36.10
2018-07-26T17:41:17.972Z,36.20
2018-07-26T17:46:14.296Z,36.40
2018-07-26T17:48:42.698Z,36.40
2018-07-26T17:51:11.031Z,36.40
2018-07-26T17:53:39.367Z,36.40
2018-07-26T17:56:07.785Z,36.40
2018-07-26T17:58:36.089Z,36.10
2018-07-26T18:01:04.374Z,35.80
2018-07-26T18:03:32.883Z,35.30
2018-07-26T18:06:01.215Z,34.80
2018-07-26T18:08:29.466Z,34.40
2018-07-26T18:10:57.744Z,33.90
2018-07-26T18:13:26.008Z,33.50
2018-07-26T18:15:54.289Z,33.10
2018-07-26T18:18:22.591Z,32.80
2018-07-26T18:20:50.944Z,32.50
2018-07-26T18:23:19.260Z,32.30
2018-07-26T18:25:47.548Z,32.00
2018-07-26T18:28:15.872Z,31.90
2018-07-26T18:30:44.152Z,31.70
2018-07-26T18:33:12.460Z,31.60
2018-07-26T18:35:49.098Z,31.40
2018-07-26T18:38:17.393Z,31.20
2018-07-26T18:40:45.712Z,31.10
2018-07-26T18:43:14.012Z,31.00
2018-07-26T18:45:42.332Z,30.90
2018-07-26T18:48:10.640Z,30.70
2018-07-26T18:50:38.928Z,30.60
2018-07-26T18:53:07.209Z,30.40
2018-07-26T18:55:35.496Z,30.20
2018-07-26T18:58:03.806Z,29.90
2018-07-26T19:00:32.125Z,29.70
2018-07-26T19:03:00.402Z,29.50
2018-07-26T19:07:56.706Z,29.10
2018-07-26T19:10:25.024Z,28.90
2018-07-26T19:12:53.310Z,28.80
2018-07-26T19:15:21.620Z,28.60
2018-07-26T19:17:49.933Z,28.50
2018-07-26T19:20:18.232Z,28.30
2018-07-26T19:25:14.550Z,28.00
2018-07-26T19:27:42.844Z,27.90
2018-07-26T19:30:13.611Z,27.80
2018-07-26T19:32:41.952Z,27.70
2018-07-26T19:35:10.588Z,27.50
2018-07-26T19:37:38.916Z,27.40
2018-07-26T19:40:08.709Z,27.30
2018-07-26T19:42:37.495Z,27.20
2018-07-26T19:45:06.351Z,27.10
2018-07-26T19:47:34.653Z,27.00
2018-07-26T19:50:03.005Z,26.90
2018-07-26T19:52:31.296Z,26.80
2018-07-26T19:54:59.584Z,26.70
2018-07-26T19:57:27.852Z,26.70
2018-07-26T19:59:56.129Z,26.60
2018-07-26T20:02:24.421Z,26.60
2018-07-26T20:04:52.752Z,26.50
2018-07-26T20:07:21.089Z,26.40
2018-07-26T20:09:49.415Z,26.40
2018-07-26T20:12:17.731Z,26.30
2018-07-26T20:17:14.046Z,26.20
2018-07-26T20:19:42.369Z,26.20
2018-07-26T20:22:10.707Z,26.20
2018-07-26T20:24:39.024Z,26.20
2018-07-26T20:27:07.403Z,26.10
2018-07-26T20:29:35.640Z,26.00
2018-07-26T20:32:03.937Z,26.00
2018-07-26T20:34:32.278Z,25.90
2018-07-26T20:37:00.552Z,25.90
2018-07-26T20:39:28.858Z,25.80
2018-07-26T20:41:57.146Z,25.80
2018-07-26T20:44:25.472Z,25.70
2018-07-26T20:46:53.742Z,25.70
2018-07-26T20:49:22.044Z,25.70
2018-07-26T20:51:50.347Z,25.60
2018-07-26T20:54:18.684Z,25.50
2018-07-26T20:56:47.012Z,25.50
2018-07-26T20:59:15.293Z,25.40
2018-07-26T21:04:11.556Z,25.30
2018-07-26T21:06:39.897Z,25.30
2018-07-26T21:09:10.933Z,25.30
2018-07-26T21:11:39.242Z,25.30
2018-07-26T21:14:07.493Z,25.30
2018-07-26T21:16:35.785Z,25.30
2018-07-26T21:19:04.395Z,25.20
2018-07-26T21:21:32.756Z,25.20
2018-07-26T21:24:01.111Z,25.20
2018-07-26T21:26:29.401Z,25.20
2018-07-26T21:28:57.779Z,25.10
2018-07-26T21:31:26.097Z,25.00
2018-07-26T21:36:22.457Z,24.90
2018-07-26T21:38:50.826Z,24.80
2018-07-26T21:41:19.088Z,24.80
2018-07-26T21:43:47.367Z,24.70
2018-07-26T21:46:15.649Z,24.70
2018-07-26T21:48:43.953Z,24.60
2018-07-26T21:51:12.251Z,24.60
2018-07-26T21:53:40.515Z,24.60
2018-07-26T21:56:08.823Z,24.60
2018-07-26T21:58:37.181Z,24.60
2018-07-26T22:01:05.568Z,24.60
2018-07-26T22:03:33.831Z,24.50
2018-07-26T22:06:02.108Z,24.40
2018-07-26T22:08:30.406Z,24.40
2018-07-26T22:10:58.699Z,24.40
2018-07-26T22:15:55.062Z,24.40
2018-07-26T22:18:23.751Z,24.40
2018-07-26T22:20:52.141Z,24.40
2018-07-26T22:23:20.471Z,24.40
2018-07-26T22:25:49.868Z,24.30
2018-07-26T22:28:18.741Z,24.30
2018-07-26T22:30:47.675Z,24.20
2018-07-26T22:33:16.015Z,24.20
2018-07-26T22:35:44.532Z,24.20
2018-07-26T22:38:13.418Z,24.10
2018-07-26T22:40:41.730Z,24.10
2018-07-26T22:45:38.475Z,24.00
2018-07-26T22:48:06.974Z,24.00
2018-07-26T22:50:35.274Z,23.90
2018-07-26T22:53:03.630Z,23.90
2018-07-26T22:55:31.903Z,23.90
2018-07-26T22:58:00.389Z,23.80
2018-07-26T23:00:28.911Z,23.80
2018-07-26T23:02:57.214Z,23.70
2018-07-26T23:05:25.471Z,23.70
2018-07-26T23:07:54.033Z,23.70
2018-07-26T23:10:22.301Z,23.70
2018-07-26T23:12:50.571Z,23.70
2018-07-26T23:15:18.902Z,23.60
2018-07-26T23:17:47.205Z,23.60
2018-07-26T23:20:15.482Z,23.60
2018-07-26T23:22:43.751Z,23.50
2018-07-26T23:25:12.028Z,23.50
2018-07-26T23:27:40.291Z,23.40
2018-07-26T23:30:11.534Z,23.40
2018-07-26T23:32:39.913Z,23.30
2018-07-26T23:35:08.719Z,23.30
2018-07-26T23:37:37.027Z,23.20
2018-07-26T23:40:06.823Z,23.20
2018-07-26T23:42:35.108Z,23.10
2018-07-26T23:45:03.562Z,23.10
2018-07-26T23:47:31.875Z,23.00
2018-07-26T23:50:00.162Z,23.00
2018-07-26T23:52:28.743Z,22.90
2018-07-26T23:54:57.026Z,22.80
2018-07-26T23:57:25.427Z,22.80
2018-07-26T23:59:53.703Z,22.70
